Gratiot, Ohio
Current Conditions -  °F | °C
As of 10:54 AM on Monday 24 Nov 2014 (Local Time) from KVTA Reporting Station
Overcast Overcast  
Wind Chill: 65°   Ceiling: 5500
Heat Index: 65°   Visibility: 10mi
Dew Point: 47°   Wind: 29mph
Humidity: 52%   Direction: 210°SSW
Pressure: 29.35"   Gusts: 45mph
Location:  39.95°N, 82.22°W
Report Text: KVTA 241554Z AUTO 21025G39KT 10SM FEW047 BKN055 OVC080 18/08 A2935 RMK AO2 PK WND 22039/1552 SLP936 T01830083
Loading
Personal Weather Stations






























Interactive Weather Map New forecast layout! Learn more

10-Day Weather Forecast

Advertisements
Track Severe Weather on mobile